sensor_id;sensor_type;location;lat;lon;timestamp;temperature;humidity
74540;SHT31;66042;51.090;-115.340;2023-08-31T00:00:08;29.30;25.49
74540;SHT31;66042;51.090;-115.340;2023-08-31T00:02:38;29.00;26.11
74540;SHT31;66042;51.090;-115.340;2023-08-31T00:05:08;28.75;26.69
74540;SHT31;66042;51.090;-115.340;2023-08-31T00:07:35;28.58;26.93
74540;SHT31;66042;51.090;-115.340;2023-08-31T00:10:03;28.42;26.95
74540;SHT31;66042;51.090;-115.340;2023-08-31T00:12:34;28.28;27.33
74540;SHT31;66042;51.090;-115.340;2023-08-31T00:15:02;28.15;27.42
74540;SHT31;66042;51.090;-115.340;2023-08-31T00:17:30;28.03;26.98
74540;SHT31;66042;51.090;-115.340;2023-08-31T00:19:56;27.90;26.96
74540;SHT31;66042;51.090;-115.340;2023-08-31T00:22:23;27.77;27.09
74540;SHT31;66042;51.090;-115.340;2023-08-31T00:24:49;27.64;26.96
74540;SHT31;66042;51.090;-115.340;2023-08-31T00:27:16;27.51;26.94
74540;SHT31;66042;51.090;-115.340;2023-08-31T00:29:43;27.40;27.29
74540;SHT31;66042;51.090;-115.340;2023-08-31T00:32:15;27.26;27.78
74540;SHT31;66042;51.090;-115.340;2023-08-31T00:34:41;27.09;28.18
74540;SHT31;66042;51.090;-115.340;2023-08-31T00:37:08;26.93;28.55
74540;SHT31;66042;51.090;-115.340;2023-08-31T00:39:35;26.80;28.88
74540;SHT31;66042;51.090;-115.340;2023-08-31T00:42:03;26.69;28.56
74540;SHT31;66042;51.090;-115.340;2023-08-31T00:44:29;26.58;28.79
74540;SHT31;66042;51.090;-115.340;2023-08-31T00:46:57;26.44;28.81
74540;SHT31;66042;51.090;-115.340;2023-08-31T00:49:24;26.33;28.48
74540;SHT31;66042;51.090;-115.340;2023-08-31T00:51:51;26.25;28.61
74540;SHT31;66042;51.090;-115.340;2023-08-31T00:54:18;26.17;28.94
74540;SHT31;66042;51.090;-115.340;2023-08-31T00:56:52;26.12;29.42
74540;SHT31;66042;51.090;-115.340;2023-08-31T00:59:20;26.05;29.20
74540;SHT31;66042;51.090;-115.340;2023-08-31T01:01:53;25.97;29.12
74540;SHT31;66042;51.090;-115.340;2023-08-31T01:04:52;25.89;28.90
74540;SHT31;66042;51.090;-115.340;2023-08-31T01:07:58;25.82;28.60
74540;SHT31;66042;51.090;-115.340;2023-08-31T01:13:07;25.59;29.77
74540;SHT31;66042;51.090;-115.340;2023-08-31T01:15:42;25.53;30.09
74540;SHT31;66042;51.090;-115.340;2023-08-31T01:18:16;25.48;30.02
74540;SHT31;66042;51.090;-115.340;2023-08-31T01:23:46;25.35;29.74
74540;SHT31;66042;51.090;-115.340;2023-08-31T01:26:21;25.23;28.88
74540;SHT31;66042;51.090;-115.340;2023-08-31T01:28:50;25.16;28.83
74540;SHT31;66042;51.090;-115.340;2023-08-31T01:31:18;25.10;28.75
74540;SHT31;66042;51.090;-115.340;2023-08-31T01:33:45;25.05;28.89
74540;SHT31;66042;51.090;-115.340;2023-08-31T01:36:18;24.99;28.96
74540;SHT31;66042;51.090;-115.340;2023-08-31T01:39:03;24.92;28.95
74540;SHT31;66042;51.090;-115.340;2023-08-31T01:41:40;24.85;28.69
74540;SHT31;66042;51.090;-115.340;2023-08-31T01:44:15;24.80;28.88
74540;SHT31;66042;51.090;-115.340;2023-08-31T01:46:46;24.74;28.92
74540;SHT31;66042;51.090;-115.340;2023-08-31T01:49:19;24.67;28.50
74540;SHT31;66042;51.090;-115.340;2023-08-31T01:51:46;24.60;28.55
74540;SHT31;66042;51.090;-115.340;2023-08-31T01:54:13;24.56;28.66
74540;SHT31;66042;51.090;-115.340;2023-08-31T01:56:41;24.53;28.67
74540;SHT31;66042;51.090;-115.340;2023-08-31T01:59:07;24.48;28.83
74540;SHT31;66042;51.090;-115.340;2023-08-31T02:01:34;24.46;28.87
74540;SHT31;66042;51.090;-115.340;2023-08-31T02:04:01;24.41;29.64
74540;SHT31;66042;51.090;-115.340;2023-08-31T02:06:28;24.36;29.96
74540;SHT31;66042;51.090;-115.340;2023-08-31T02:08:55;24.33;30.55
74540;SHT31;66042;51.090;-115.340;2023-08-31T02:11:22;24.28;30.79
74540;SHT31;66042;51.090;-115.340;2023-08-31T02:13:49;24.24;31.16
74540;SHT31;66042;51.090;-115.340;2023-08-31T02:16:16;24.19;31.44
74540;SHT31;66042;51.090;-115.340;2023-08-31T02:18:43;24.13;31.64
74540;SHT31;66042;51.090;-115.340;2023-08-31T02:21:10;24.05;31.35
74540;SHT31;66042;51.090;-115.340;2023-08-31T02:23:38;23.99;31.87
74540;SHT31;66042;51.090;-115.340;2023-08-31T02:26:05;23.88;32.63
74540;SHT31;66042;51.090;-115.340;2023-08-31T02:28:32;23.81;32.95
74540;SHT31;66042;51.090;-115.340;2023-08-31T02:31:00;23.73;33.54
74540;SHT31;66042;51.090;-115.340;2023-08-31T02:33:28;23.66;33.65
74540;SHT31;66042;51.090;-115.340;2023-08-31T02:35:55;23.61;33.88
74540;SHT31;66042;51.090;-115.340;2023-08-31T02:38:23;23.56;34.14
74540;SHT31;66042;51.090;-115.340;2023-08-31T02:40:50;23.51;34.46
74540;SHT31;66042;51.090;-115.340;2023-08-31T02:43:16;23.43;34.61
74540;SHT31;66042;51.090;-115.340;2023-08-31T02:45:44;23.37;34.89
74540;SHT31;66042;51.090;-115.340;2023-08-31T02:48:11;23.32;35.14
74540;SHT31;66042;51.090;-115.340;2023-08-31T02:50:39;23.22;35.33
74540;SHT31;66042;51.090;-115.340;2023-08-31T02:53:05;23.15;35.59
74540;SHT31;66042;51.090;-115.340;2023-08-31T02:55:32;23.07;35.96
74540;SHT31;66042;51.090;-115.340;2023-08-31T02:57:59;22.98;36.19
74540;SHT31;66042;51.090;-115.340;2023-08-31T03:00:27;22.91;36.39
74540;SHT31;66042;51.090;-115.340;2023-08-31T03:02:54;22.84;36.61
74540;SHT31;66042;51.090;-115.340;2023-08-31T03:05:21;22.77;36.66
74540;SHT31;66042;51.090;-115.340;2023-08-31T03:07:48;22.69;36.81
74540;SHT31;66042;51.090;-115.340;2023-08-31T03:10:15;22.61;36.91
74540;SHT31;66042;51.090;-115.340;2023-08-31T03:12:41;22.53;37.28
74540;SHT31;66042;51.090;-115.340;2023-08-31T03:15:08;22.45;37.49
74540;SHT31;66042;51.090;-115.340;2023-08-31T03:17:35;22.37;38.03
74540;SHT31;66042;51.090;-115.340;2023-08-31T03:20:03;22.27;38.14
74540;SHT31;66042;51.090;-115.340;2023-08-31T03:22:31;22.18;38.38
74540;SHT31;66042;51.090;-115.340;2023-08-31T03:24:58;22.10;38.57
74540;SHT31;66042;51.090;-115.340;2023-08-31T03:27:25;22.01;38.67
74540;SHT31;66042;51.090;-115.340;2023-08-31T03:29:52;21.93;38.83
74540;SHT31;66042;51.090;-115.340;2023-08-31T03:32:19;21.83;39.40
74540;SHT31;66042;51.090;-115.340;2023-08-31T03:34:46;21.72;39.48
74540;SHT31;66042;51.090;-115.340;2023-08-31T03:37:15;21.65;39.64
74540;SHT31;66042;51.090;-115.340;2023-08-31T03:39:49;21.58;39.78
74540;SHT31;66042;51.090;-115.340;2023-08-31T03:42:16;21.49;39.97
74540;SHT31;66042;51.090;-115.340;2023-08-31T03:44:43;21.42;40.14
74540;SHT31;66042;51.090;-115.340;2023-08-31T03:47:10;21.34;40.31
74540;SHT31;66042;51.090;-115.340;2023-08-31T03:49:37;21.25;40.50
74540;SHT31;66042;51.090;-115.340;2023-08-31T03:52:04;21.18;40.64
74540;SHT31;66042;51.090;-115.340;2023-08-31T03:54:31;21.12;40.85
74540;SHT31;66042;51.090;-115.340;2023-08-31T03:56:58;21.05;41.02
74540;SHT31;66042;51.090;-115.340;2023-08-31T03:59:25;20.99;41.13
74540;SHT31;66042;51.090;-115.340;2023-08-31T04:01:52;20.93;41.29
74540;SHT31;66042;51.090;-115.340;2023-08-31T04:04:22;20.87;41.47
74540;SHT31;66042;51.090;-115.340;2023-08-31T04:06:50;20.79;41.64
74540;SHT31;66042;51.090;-115.340;2023-08-31T04:09:17;20.73;41.84
74540;SHT31;66042;51.090;-115.340;2023-08-31T04:11:44;20.64;41.93
74540;SHT31;66042;51.090;-115.340;2023-08-31T04:14:12;20.55;42.10
74540;SHT31;66042;51.090;-115.340;2023-08-31T04:16:38;20.47;42.21
74540;SHT31;66042;51.090;-115.340;2023-08-31T04:19:05;20.42;42.42
74540;SHT31;66042;51.090;-115.340;2023-08-31T04:21:32;20.33;42.66
74540;SHT31;66042;51.090;-115.340;2023-08-31T04:23:59;20.20;42.88
74540;SHT31;66042;51.090;-115.340;2023-08-31T04:26:27;20.12;43.07
74540;SHT31;66042;51.090;-115.340;2023-08-31T04:28:54;20.03;43.12
74540;SHT31;66042;51.090;-115.340;2023-08-31T04:31:21;19.96;43.23
74540;SHT31;66042;51.090;-115.340;2023-08-31T04:33:48;19.92;43.25
74540;SHT31;66042;51.090;-115.340;2023-08-31T04:36:21;19.86;43.30
74540;SHT31;66042;51.090;-115.340;2023-08-31T04:38:49;19.81;43.35
74540;SHT31;66042;51.090;-115.340;2023-08-31T04:41:16;19.75;43.47
74540;SHT31;66042;51.090;-115.340;2023-08-31T04:43:44;19.68;43.63
74540;SHT31;66042;51.090;-115.340;2023-08-31T04:46:13;19.61;43.99
74540;SHT31;66042;51.090;-115.340;2023-08-31T04:48:40;19.54;44.27
74540;SHT31;66042;51.090;-115.340;2023-08-31T04:51:09;19.49;44.52
74540;SHT31;66042;51.090;-115.340;2023-08-31T04:54:02;19.40;44.61
74540;SHT31;66042;51.090;-115.340;2023-08-31T04:56:30;19.36;44.83
74540;SHT31;66042;51.090;-115.340;2023-08-31T04:58:59;19.28;44.79
74540;SHT31;66042;51.090;-115.340;2023-08-31T05:01:30;19.26;44.84
74540;SHT31;66042;51.090;-115.340;2023-08-31T05:03:57;19.23;44.95
74540;SHT31;66042;51.090;-115.340;2023-08-31T05:06:24;19.21;45.01
74540;SHT31;66042;51.090;-115.340;2023-08-31T05:08:51;19.16;45.09
74540;SHT31;66042;51.090;-115.340;2023-08-31T05:11:18;19.12;45.24
74540;SHT31;66042;51.090;-115.340;2023-08-31T05:13:44;19.05;45.36
74540;SHT31;66042;51.090;-115.340;2023-08-31T05:16:14;19.00;45.47
74540;SHT31;66042;51.090;-115.340;2023-08-31T05:18:40;18.93;45.69
74540;SHT31;66042;51.090;-115.340;2023-08-31T05:21:07;18.85;45.87
74540;SHT31;66042;51.090;-115.340;2023-08-31T05:23:34;18.79;45.96
74540;SHT31;66042;51.090;-115.340;2023-08-31T05:26:02;18.71;46.18
74540;SHT31;66042;51.090;-115.340;2023-08-31T05:28:29;18.62;46.32
74540;SHT31;66042;51.090;-115.340;2023-08-31T05:30:56;18.58;46.47
74540;SHT31;66042;51.090;-115.340;2023-08-31T05:33:23;18.55;46.62
74540;SHT31;66042;51.090;-115.340;2023-08-31T05:35:54;18.51;46.75
74540;SHT31;66042;51.090;-115.340;2023-08-31T05:38:21;18.47;46.96
74540;SHT31;66042;51.090;-115.340;2023-08-31T05:40:49;18.38;47.34
74540;SHT31;66042;51.090;-115.340;2023-08-31T05:43:16;18.32;47.39
74540;SHT31;66042;51.090;-115.340;2023-08-31T05:45:43;18.29;47.58
74540;SHT31;66042;51.090;-115.340;2023-08-31T05:48:09;18.25;47.65
74540;SHT31;66042;51.090;-115.340;2023-08-31T05:50:36;18.20;48.04
74540;SHT31;66042;51.090;-115.340;2023-08-31T05:53:04;18.15;48.00
74540;SHT31;66042;51.090;-115.340;2023-08-31T05:55:33;18.13;48.22
74540;SHT31;66042;51.090;-115.340;2023-08-31T05:58:00;18.12;48.14
74540;SHT31;66042;51.090;-115.340;2023-08-31T06:00:28;18.11;48.34
74540;SHT31;66042;51.090;-115.340;2023-08-31T06:02:55;18.08;48.41
74540;SHT31;66042;51.090;-115.340;2023-08-31T06:05:22;18.03;48.51
74540;SHT31;66042;51.090;-115.340;2023-08-31T06:07:48;18.01;48.55
74540;SHT31;66042;51.090;-115.340;2023-08-31T06:10:16;17.98;48.61
74540;SHT31;66042;51.090;-115.340;2023-08-31T06:12:43;17.92;48.77
74540;SHT31;66042;51.090;-115.340;2023-08-31T06:15:10;17.83;48.81
74540;SHT31;66042;51.090;-115.340;2023-08-31T06:17:37;17.78;48.94
74540;SHT31;66042;51.090;-115.340;2023-08-31T06:20:05;17.76;49.00
74540;SHT31;66042;51.090;-115.340;2023-08-31T06:22:34;17.73;49.11
74540;SHT31;66042;51.090;-115.340;2023-08-31T06:25:00;17.66;49.26
74540;SHT31;66042;51.090;-115.340;2023-08-31T06:27:29;17.61;49.32
74540;SHT31;66042;51.090;-115.340;2023-08-31T06:29:56;17.56;49.52
74540;SHT31;66042;51.090;-115.340;2023-08-31T06:32:23;17.51;49.64
74540;SHT31;66042;51.090;-115.340;2023-08-31T06:34:49;17.47;49.82
74540;SHT31;66042;51.090;-115.340;2023-08-31T06:37:17;17.42;49.94
74540;SHT31;66042;51.090;-115.340;2023-08-31T06:39:45;17.31;50.13
74540;SHT31;66042;51.090;-115.340;2023-08-31T06:42:12;17.26;50.28
74540;SHT31;66042;51.090;-115.340;2023-08-31T06:44:39;17.20;50.40
74540;SHT31;66042;51.090;-115.340;2023-08-31T06:47:06;17.16;50.56
74540;SHT31;66042;51.090;-115.340;2023-08-31T06:49:33;17.13;50.57
74540;SHT31;66042;51.090;-115.340;2023-08-31T06:52:00;17.09;50.69
74540;SHT31;66042;51.090;-115.340;2023-08-31T06:54:28;17.06;50.86
74540;SHT31;66042;51.090;-115.340;2023-08-31T06:56:55;17.01;50.92
74540;SHT31;66042;51.090;-115.340;2023-08-31T06:59:22;16.96;51.07
74540;SHT31;66042;51.090;-115.340;2023-08-31T07:01:50;16.86;51.30
74540;SHT31;66042;51.090;-115.340;2023-08-31T07:04:16;16.78;51.33
74540;SHT31;66042;51.090;-115.340;2023-08-31T07:06:43;16.76;51.39
74540;SHT31;66042;51.090;-115.340;2023-08-31T07:09:10;16.73;51.43
74540;SHT31;66042;51.090;-115.340;2023-08-31T07:11:37;16.69;51.39
74540;SHT31;66042;51.090;-115.340;2023-08-31T07:14:04;16.66;51.45
74540;SHT31;66042;51.090;-115.340;2023-08-31T07:16:31;16.63;51.51
74540;SHT31;66042;51.090;-115.340;2023-08-31T07:18:58;16.56;51.57
74540;SHT31;66042;51.090;-115.340;2023-08-31T07:21:26;16.50;51.56
74540;SHT31;66042;51.090;-115.340;2023-08-31T07:23:53;16.44;51.79
74540;SHT31;66042;51.090;-115.340;2023-08-31T07:26:20;16.39;51.80
74540;SHT31;66042;51.090;-115.340;2023-08-31T07:28:47;16.36;51.93
74540;SHT31;66042;51.090;-115.340;2023-08-31T07:31:14;16.30;52.01
74540;SHT31;66042;51.090;-115.340;2023-08-31T07:33:42;16.26;52.13
74540;SHT31;66042;51.090;-115.340;2023-08-31T07:36:08;16.24;52.22
74540;SHT31;66042;51.090;-115.340;2023-08-31T07:38:36;16.20;52.26
74540;SHT31;66042;51.090;-115.340;2023-08-31T07:41:03;16.16;52.28
74540;SHT31;66042;51.090;-115.340;2023-08-31T07:43:30;16.11;52.32
74540;SHT31;66042;51.090;-115.340;2023-08-31T07:45:56;16.07;52.34
74540;SHT31;66042;51.090;-115.340;2023-08-31T07:48:23;16.03;52.43
74540;SHT31;66042;51.090;-115.340;2023-08-31T07:50:50;15.98;52.54
74540;SHT31;66042;51.090;-115.340;2023-08-31T07:53:19;15.95;52.54
74540;SHT31;66042;51.090;-115.340;2023-08-31T07:55:55;15.90;52.54
74540;SHT31;66042;51.090;-115.340;2023-08-31T07:58:22;15.85;52.69
74540;SHT31;66042;51.090;-115.340;2023-08-31T08:00:52;15.82;52.81
74540;SHT31;66042;51.090;-115.340;2023-08-31T08:03:21;15.79;52.87
74540;SHT31;66042;51.090;-115.340;2023-08-31T08:05:51;15.77;52.94
74540;SHT31;66042;51.090;-115.340;2023-08-31T08:08:17;15.73;53.06
74540;SHT31;66042;51.090;-115.340;2023-08-31T08:10:44;15.69;53.16
74540;SHT31;66042;51.090;-115.340;2023-08-31T08:13:11;15.63;53.29
74540;SHT31;66042;51.090;-115.340;2023-08-31T08:15:39;15.58;53.34
74540;SHT31;66042;51.090;-115.340;2023-08-31T08:18:06;15.55;53.42
74540;SHT31;66042;51.090;-115.340;2023-08-31T08:20:34;15.52;53.44
74540;SHT31;66042;51.090;-115.340;2023-08-31T08:23:01;15.44;53.63
74540;SHT31;66042;51.090;-115.340;2023-08-31T08:25:28;15.41;53.76
74540;SHT31;66042;51.090;-115.340;2023-08-31T08:27:55;15.40;53.73
74540;SHT31;66042;51.090;-115.340;2023-08-31T08:30:22;15.35;53.72
74540;SHT31;66042;51.090;-115.340;2023-08-31T08:32:50;15.33;53.89
74540;SHT31;66042;51.090;-115.340;2023-08-31T08:35:17;15.32;53.91
74540;SHT31;66042;51.090;-115.340;2023-08-31T08:37:44;15.28;53.96
74540;SHT31;66042;51.090;-115.340;2023-08-31T08:40:11;15.26;54.11
74540;SHT31;66042;51.090;-115.340;2023-08-31T08:42:40;15.15;54.30
74540;SHT31;66042;51.090;-115.340;2023-08-31T08:45:14;15.07;54.54
74540;SHT31;66042;51.090;-115.340;2023-08-31T08:47:42;15.03;54.60
74540;SHT31;66042;51.090;-115.340;2023-08-31T08:50:13;15.01;54.71
74540;SHT31;66042;51.090;-115.340;2023-08-31T08:52:41;14.93;54.89
74540;SHT31;66042;51.090;-115.340;2023-08-31T08:55:09;14.91;55.06
74540;SHT31;66042;51.090;-115.340;2023-08-31T08:57:36;14.92;55.02
74540;SHT31;66042;51.090;-115.340;2023-08-31T09:00:04;14.91;55.00
74540;SHT31;66042;51.090;-115.340;2023-08-31T09:02:31;14.90;55.21
74540;SHT31;66042;51.090;-115.340;2023-08-31T09:04:58;14.88;55.26
74540;SHT31;66042;51.090;-115.340;2023-08-31T09:07:27;14.87;55.29
74540;SHT31;66042;51.090;-115.340;2023-08-31T09:10:01;14.86;55.34
74540;SHT31;66042;51.090;-115.340;2023-08-31T09:12:29;14.82;55.38
74540;SHT31;66042;51.090;-115.340;2023-08-31T09:14:57;14.81;55.46
74540;SHT31;66042;51.090;-115.340;2023-08-31T09:17:39;14.78;55.50
74540;SHT31;66042;51.090;-115.340;2023-08-31T09:20:12;14.75;55.64
74540;SHT31;66042;51.090;-115.340;2023-08-31T09:22:41;14.71;55.83
74540;SHT31;66042;51.090;-115.340;2023-08-31T09:25:13;14.67;55.87
74540;SHT31;66042;51.090;-115.340;2023-08-31T09:27:40;14.65;55.85
74540;SHT31;66042;51.090;-115.340;2023-08-31T09:30:10;14.63;56.01
74540;SHT31;66042;51.090;-115.340;2023-08-31T09:32:37;14.61;56.04
74540;SHT31;66042;51.090;-115.340;2023-08-31T09:35:08;14.56;56.02
74540;SHT31;66042;51.090;-115.340;2023-08-31T09:37:35;14.56;56.21
74540;SHT31;66042;51.090;-115.340;2023-08-31T09:40:02;14.57;56.26
74540;SHT31;66042;51.090;-115.340;2023-08-31T09:42:36;14.56;56.26
74540;SHT31;66042;51.090;-115.340;2023-08-31T09:45:04;14.55;56.33
74540;SHT31;66042;51.090;-115.340;2023-08-31T09:47:32;14.52;56.29
74540;SHT31;66042;51.090;-115.340;2023-08-31T09:50:01;14.49;56.40
74540;SHT31;66042;51.090;-115.340;2023-08-31T09:52:29;14.47;56.49
74540;SHT31;66042;51.090;-115.340;2023-08-31T09:54:57;14.45;56.56
74540;SHT31;66042;51.090;-115.340;2023-08-31T09:57:27;14.43;56.68
74540;SHT31;66042;51.090;-115.340;2023-08-31T09:59:54;14.39;56.78
74540;SHT31;66042;51.090;-115.340;2023-08-31T10:02:21;14.35;56.82
74540;SHT31;66042;51.090;-115.340;2023-08-31T10:04:48;14.34;56.91
74540;SHT31;66042;51.090;-115.340;2023-08-31T10:07:17;14.33;57.12
74540;SHT31;66042;51.090;-115.340;2023-08-31T10:09:46;14.31;57.18
74540;SHT31;66042;51.090;-115.340;2023-08-31T10:12:14;14.33;57.21
74540;SHT31;66042;51.090;-115.340;2023-08-31T10:14:42;14.32;57.37
74540;SHT31;66042;51.090;-115.340;2023-08-31T10:17:12;14.31;57.68
74540;SHT31;66042;51.090;-115.340;2023-08-31T10:19:39;14.30;57.71
74540;SHT31;66042;51.090;-115.340;2023-08-31T10:22:07;14.31;57.87
74540;SHT31;66042;51.090;-115.340;2023-08-31T10:25:16;14.30;58.60
74540;SHT31;66042;51.090;-115.340;2023-08-31T10:27:35;14.19;58.87
74540;SHT31;66042;51.090;-115.340;2023-08-31T10:35:52;14.30;58.32
74540;SHT31;66042;51.090;-115.340;2023-08-31T10:38:29;14.35;58.12
74540;SHT31;66042;51.090;-115.340;2023-08-31T10:43:43;14.43;58.22
74540;SHT31;66042;51.090;-115.340;2023-08-31T10:51:40;14.45;58.26
74540;SHT31;66042;51.090;-115.340;2023-08-31T11:07:48;14.52;58.09
74540;SHT31;66042;51.090;-115.340;2023-08-31T11:10:18;14.56;58.21
74540;SHT31;66042;51.090;-115.340;2023-08-31T11:12:49;14.56;58.22
74540;SHT31;66042;51.090;-115.340;2023-08-31T11:15:19;14.58;58.11
74540;SHT31;66042;51.090;-115.340;2023-08-31T11:17:50;14.60;58.43
74540;SHT31;66042;51.090;-115.340;2023-08-31T11:20:20;14.59;58.42
74540;SHT31;66042;51.090;-115.340;2023-08-31T11:22:56;14.61;58.40
74540;SHT31;66042;51.090;-115.340;2023-08-31T11:25:23;14.61;58.27
74540;SHT31;66042;51.090;-115.340;2023-08-31T11:27:56;14.60;58.63
74540;SHT31;66042;51.090;-115.340;2023-08-31T11:30:28;14.56;58.70
74540;SHT31;66042;51.090;-115.340;2023-08-31T11:33:06;14.57;58.63
74540;SHT31;66042;51.090;-115.340;2023-08-31T11:35:37;14.59;58.58
74540;SHT31;66042;51.090;-115.340;2023-08-31T11:38:07;14.60;58.55
74540;SHT31;66042;51.090;-115.340;2023-08-31T11:40:35;14.60;58.61
74540;SHT31;66042;51.090;-115.340;2023-08-31T11:43:02;14.60;58.62
74540;SHT31;66042;51.090;-115.340;2023-08-31T11:45:34;14.59;58.69
74540;SHT31;66042;51.090;-115.340;2023-08-31T11:48:04;14.59;58.85
74540;SHT31;66042;51.090;-115.340;2023-08-31T11:50:32;14.57;58.75
74540;SHT31;66042;51.090;-115.340;2023-08-31T11:52:59;14.62;58.52
74540;SHT31;66042;51.090;-115.340;2023-08-31T11:55:26;14.65;58.39
74540;SHT31;66042;51.090;-115.340;2023-08-31T11:57:54;14.68;58.31
74540;SHT31;66042;51.090;-115.340;2023-08-31T12:00:21;14.70;58.24
74540;SHT31;66042;51.090;-115.340;2023-08-31T12:02:59;14.71;58.04
74540;SHT31;66042;51.090;-115.340;2023-08-31T12:05:27;14.69;58.37
74540;SHT31;66042;51.090;-115.340;2023-08-31T12:07:55;14.60;58.41
74540;SHT31;66042;51.090;-115.340;2023-08-31T12:10:26;14.61;58.09
74540;SHT31;66042;51.090;-115.340;2023-08-31T12:12:53;14.63;58.09
74540;SHT31;66042;51.090;-115.340;2023-08-31T12:15:21;14.65;58.06
74540;SHT31;66042;51.090;-115.340;2023-08-31T12:17:48;14.64;58.22
74540;SHT31;66042;51.090;-115.340;2023-08-31T12:20:24;14.63;58.18
74540;SHT31;66042;51.090;-115.340;2023-08-31T12:22:52;14.60;58.25
74540;SHT31;66042;51.090;-115.340;2023-08-31T12:25:22;14.57;58.33
74540;SHT31;66042;51.090;-115.340;2023-08-31T12:27:48;14.55;58.31
74540;SHT31;66042;51.090;-115.340;2023-08-31T12:30:15;14.52;58.42
74540;SHT31;66042;51.090;-115.340;2023-08-31T12:32:42;14.50;58.56
74540;SHT31;66042;51.090;-115.340;2023-08-31T12:35:09;14.48;58.63
74540;SHT31;66042;51.090;-115.340;2023-08-31T12:37:37;14.45;58.61
74540;SHT31;66042;51.090;-115.340;2023-08-31T12:40:04;14.37;58.97
74540;SHT31;66042;51.090;-115.340;2023-08-31T12:42:34;14.30;59.12
74540;SHT31;66042;51.090;-115.340;2023-08-31T12:45:01;14.27;59.19
74540;SHT31;66042;51.090;-115.340;2023-08-31T12:47:31;14.27;59.15
74540;SHT31;66042;51.090;-115.340;2023-08-31T12:49:57;14.26;59.23
74540;SHT31;66042;51.090;-115.340;2023-08-31T12:52:24;14.24;59.28
74540;SHT31;66042;51.090;-115.340;2023-08-31T12:54:51;14.24;59.34
74540;SHT31;66042;51.090;-115.340;2023-08-31T12:57:18;14.23;59.46
74540;SHT31;66042;51.090;-115.340;2023-08-31T12:59:45;14.22;59.35
74540;SHT31;66042;51.090;-115.340;2023-08-31T13:02:12;14.19;59.45
74540;SHT31;66042;51.090;-115.340;2023-08-31T13:04:38;14.18;59.45
74540;SHT31;66042;51.090;-115.340;2023-08-31T13:07:05;14.19;59.41
74540;SHT31;66042;51.090;-115.340;2023-08-31T13:09:32;14.21;59.47
74540;SHT31;66042;51.090;-115.340;2023-08-31T13:11:58;14.21;59.58
74540;SHT31;66042;51.090;-115.340;2023-08-31T13:14:27;14.21;59.54
74540;SHT31;66042;51.090;-115.340;2023-08-31T13:16:54;14.22;59.48
74540;SHT31;66042;51.090;-115.340;2023-08-31T13:19:21;14.20;59.43
74540;SHT31;66042;51.090;-115.340;2023-08-31T13:21:48;14.19;59.45
74540;SHT31;66042;51.090;-115.340;2023-08-31T13:24:15;14.14;59.70
74540;SHT31;66042;51.090;-115.340;2023-08-31T13:26:42;14.15;59.62
74540;SHT31;66042;51.090;-115.340;2023-08-31T13:29:13;14.15;59.70
74540;SHT31;66042;51.090;-115.340;2023-08-31T13:31:40;14.15;59.62
74540;SHT31;66042;51.090;-115.340;2023-08-31T13:34:07;14.15;59.60
74540;SHT31;66042;51.090;-115.340;2023-08-31T13:36:36;14.09;60.00
74540;SHT31;66042;51.090;-115.340;2023-08-31T13:39:02;14.00;60.03
74540;SHT31;66042;51.090;-115.340;2023-08-31T13:41:29;13.99;60.09
74540;SHT31;66042;51.090;-115.340;2023-08-31T13:43:56;13.99;60.14
74540;SHT31;66042;51.090;-115.340;2023-08-31T13:46:22;13.98;60.10
74540;SHT31;66042;51.090;-115.340;2023-08-31T13:48:49;13.98;59.98
74540;SHT31;66042;51.090;-115.340;2023-08-31T13:51:16;14.00;60.07
74540;SHT31;66042;51.090;-115.340;2023-08-31T13:53:42;14.02;60.05
74540;SHT31;66042;51.090;-115.340;2023-08-31T13:56:11;14.04;59.89
74540;SHT31;66042;51.090;-115.340;2023-08-31T13:58:39;14.05;59.89
74540;SHT31;66042;51.090;-115.340;2023-08-31T14:01:06;14.07;59.79
74540;SHT31;66042;51.090;-115.340;2023-08-31T14:03:33;14.08;59.94
74540;SHT31;66042;51.090;-115.340;2023-08-31T14:05:59;14.07;59.80
74540;SHT31;66042;51.090;-115.340;2023-08-31T14:08:26;14.08;59.97
74540;SHT31;66042;51.090;-115.340;2023-08-31T14:10:53;14.06;60.16
74540;SHT31;66042;51.090;-115.340;2023-08-31T14:13:21;14.07;60.23
74540;SHT31;66042;51.090;-115.340;2023-08-31T14:15:49;14.08;60.13
74540;SHT31;66042;51.090;-115.340;2023-08-31T14:18:16;14.10;60.16
74540;SHT31;66042;51.090;-115.340;2023-08-31T14:20:43;14.09;60.20
74540;SHT31;66042;51.090;-115.340;2023-08-31T14:23:10;14.09;60.34
74540;SHT31;66042;51.090;-115.340;2023-08-31T14:25:37;14.08;60.49
74540;SHT31;66042;51.090;-115.340;2023-08-31T14:28:04;14.09;60.64
74540;SHT31;66042;51.090;-115.340;2023-08-31T14:30:31;14.11;60.79
74540;SHT31;66042;51.090;-115.340;2023-08-31T14:33:02;14.12;60.99
74540;SHT31;66042;51.090;-115.340;2023-08-31T14:35:29;14.11;60.82
74540;SHT31;66042;51.090;-115.340;2023-08-31T14:37:57;14.14;60.80
74540;SHT31;66042;51.090;-115.340;2023-08-31T14:40:24;14.16;60.78
74540;SHT31;66042;51.090;-115.340;2023-08-31T14:42:51;14.18;60.86
74540;SHT31;66042;51.090;-115.340;2023-08-31T14:45:18;14.22;60.87
74540;SHT31;66042;51.090;-115.340;2023-08-31T14:47:45;14.25;60.78
74540;SHT31;66042;51.090;-115.340;2023-08-31T14:50:11;14.29;60.66
74540;SHT31;66042;51.090;-115.340;2023-08-31T14:52:38;14.33;60.52
74540;SHT31;66042;51.090;-115.340;2023-08-31T14:55:05;14.38;60.56
74540;SHT31;66042;51.090;-115.340;2023-08-31T14:57:32;14.40;60.62
74540;SHT31;66042;51.090;-115.340;2023-08-31T14:59:59;14.43;60.67
74540;SHT31;66042;51.090;-115.340;2023-08-31T15:02:27;14.47;60.72
74540;SHT31;66042;51.090;-115.340;2023-08-31T15:04:53;14.48;60.57
74540;SHT31;66042;51.090;-115.340;2023-08-31T15:07:20;14.50;60.56
74540;SHT31;66042;51.090;-115.340;2023-08-31T15:09:46;14.51;60.43
74540;SHT31;66042;51.090;-115.340;2023-08-31T15:12:15;14.55;60.20
74540;SHT31;66042;51.090;-115.340;2023-08-31T15:14:42;14.57;60.47
74540;SHT31;66042;51.090;-115.340;2023-08-31T15:17:09;14.58;60.59
74540;SHT31;66042;51.090;-115.340;2023-08-31T15:19:36;14.59;60.67
74540;SHT31;66042;51.090;-115.340;2023-08-31T15:22:03;14.60;60.55
74540;SHT31;66042;51.090;-115.340;2023-08-31T15:24:30;14.60;60.73
74540;SHT31;66042;51.090;-115.340;2023-08-31T15:26:57;14.60;60.75